Time;durP1;ratioP1;P1;durP2;ratioP2;P2;SDS_P1;SDS_P2;PMS_P1;PMS_P2;Temp;Humidity;BMP_temperature;BMP_pressure;BME280_temperature;BME280_humidity;BME280_pressure;Samples;Min_cycle;Max_cycle;Signal;HPM_P1;HPM_P2
2022/07/09 00:00:33;;;;;;;;;;;;;;;19.05;65.64;100498.81;6103661;23;1265;-94
2022/07/09 00:03:00;;;;;;;;;;;;;;;19.04;65.62;100502.66;6103104;23;1286;-94
2022/07/09 00:05:26;;;;;;;;;;;;;;;19.02;65.42;100500.19;6128130;23;1173;-94
2022/07/09 00:07:52;;;;;;;;;;;;;;;19.01;65.69;100501.28;6128413;23;1280;-94
2022/07/09 00:10:19;;;;;;;;;;;;;;;19.01;65.58;100504.03;6129316;23;1932;-94
2022/07/09 00:12:45;;;;;;;;;;;;;;;19.01;65.60;100505.94;6128033;23;1240;-95
2022/07/09 00:15:12;;;;;;;;;;;;;;;19.00;65.50;100507.00;6128545;23;1287;-94
2022/07/09 00:17:38;;;;;;;;;;;;;;;18.99;65.51;100519.03;6128240;23;1318;-94
2022/07/09 00:20:05;;;;;;;;;;;;;;;18.98;65.59;100517.41;6128363;23;1199;-94
2022/07/09 00:22:31;;;;;;;;;;;;;;;18.97;65.51;100505.69;6128053;23;1113;-94
2022/07/09 00:24:58;;;;;;;;;;;;;;;18.97;65.35;100507.56;6128278;23;1207;-94
2022/07/09 00:27:24;;;;;;;;;;;;;;;18.96;65.59;100512.22;6127869;23;1153;-94
2022/07/09 00:29:50;;;;;;;;;;;;;;;18.96;65.61;100508.66;6127623;23;1934;-94
2022/07/09 00:32:18;;;;;;;;;;;;;;;18.95;65.52;100512.50;6127638;23;1295;-94
2022/07/09 00:34:44;;;;;;;;;;;;;;;18.95;65.49;100512.50;6128284;23;1346;-94
2022/07/09 00:37:11;;;;;;;;;;;;;;;18.94;65.60;100519.03;6128044;23;1152;-94
2022/07/09 00:39:37;;;;;;;;;;;;;;;18.92;65.67;100511.13;6127660;23;1328;-94
2022/07/09 00:42:04;;;;;;;;;;;;;;;18.91;65.17;100508.66;6127586;23;1258;-94
2022/07/09 00:44:30;;;;;;;;;;;;;;;18.91;65.19;100514.94;6103442;23;1151;-94
2022/07/09 00:46:57;;;;;;;;;;;;;;;18.90;65.43;100509.78;6103588;23;1204;-94
2022/07/09 00:49:24;;;;;;;;;;;;;;;18.89;65.12;100510.88;6127890;23;1971;-94
2022/07/09 00:51:51;;;;;;;;;;;;;;;18.88;65.22;100510.03;6127783;23;1324;-94
2022/07/09 00:54:17;;;;;;;;;;;;;;;18.86;65.24;100511.44;6127954;23;1290;-94
2022/07/09 00:56:43;;;;;;;;;;;;;;;18.86;64.94;100506.78;6127614;23;1196;-94
2022/07/09 00:59:13;;;;;;;;;;;;;;;18.85;65.22;100516.03;6127541;23;1145;-94
2022/07/09 01:01:39;;;;;;;;;;;;;;;18.84;65.32;100504.31;6103314;23;1274;-94
2022/07/09 01:04:05;;;;;;;;;;;;;;;18.84;65.18;100509.78;6103467;23;1152;-94
2022/07/09 01:06:33;;;;;;;;;;;;;;;18.83;65.24;100508.16;6127701;23;1317;-94
2022/07/09 01:08:59;;;;;;;;;;;;;;;18.84;65.26;100507.03;6127648;23;1304;-94
2022/07/09 01:11:26;;;;;;;;;;;;;;;18.81;65.33;100504.06;6127479;23;1948;-94
2022/07/09 01:13:52;;;;;;;;;;;;;;;18.82;65.18;100508.41;6127748;23;1287;-94
2022/07/09 01:16:20;;;;;;;;;;;;;;;18.80;65.10;100505.97;6127352;23;1351;-94
2022/07/09 01:18:46;;;;;;;;;;;;;;;18.80;64.87;100495.06;6127928;23;1128;-93
2022/07/09 01:21:12;;;;;;;;;;;;;;;18.80;64.87;100496.97;6127362;23;1342;-94
2022/07/09 01:23:39;;;;;;;;;;;;;;;18.79;65.05;100498.06;6127339;23;1145;-94
2022/07/09 01:26:05;;;;;;;;;;;;;;;18.77;65.04;100492.88;6104424;23;1263;-94
2022/07/09 01:28:32;;;;;;;;;;;;;;;18.76;65.08;100493.16;6102852;23;1269;-94
2022/07/09 01:30:58;;;;;;;;;;;;;;;18.77;65.05;100486.63;6128657;23;1897;-94
2022/07/09 01:33:25;;;;;;;;;;;;;;;18.75;64.84;100480.63;6127427;23;1278;-95
2022/07/09 01:35:52;;;;;;;;;;;;;;;18.74;65.27;100479.00;6127469;23;1192;-94
2022/07/09 01:38:18;;;;;;;;;;;;;;;18.72;65.03;100489.31;6127210;23;1237;-94
2022/07/09 01:40:45;;;;;;;;;;;;;;;18.72;64.88;100478.41;6103030;23;1278;-94
2022/07/09 01:43:13;;;;;;;;;;;;;;;18.69;64.93;100479.78;6127426;23;1119;-94
2022/07/09 01:45:39;;;;;;;;;;;;;;;18.68;65.09;100483.59;6127616;23;1273;-94
2022/07/09 01:48:05;;;;;;;;;;;;;;;18.68;64.88;100480.88;6102878;23;1231;-94
2022/07/09 01:50:32;;;;;;;;;;;;;;;18.67;65.09;100472.94;6127373;23;1897;-94
2022/07/09 01:52:58;;;;;;;;;;;;;;;18.66;65.12;100474.06;6128810;23;1202;-94
2022/07/09 01:55:24;;;;;;;;;;;;;;;18.65;64.80;100475.13;6129827;23;1241;-93
2022/07/09 01:57:53;;;;;;;;;;;;;;;18.65;65.02;100475.13;6104812;23;1251;-94
2022/07/09 02:00:19;;;;;;;;;;;;;;;18.63;64.81;100471.88;6104658;23;1235;-94
2022/07/09 02:02:49;;;;;;;;;;;;;;;18.62;64.98;100471.06;6129299;23;1165;-94
2022/07/09 02:05:15;;;;;;;;;;;;;;;18.59;64.90;100466.97;6129282;23;1132;-95
2022/07/09 02:07:41;;;;;;;;;;;;;;;18.59;64.86;100468.88;6104733;23;1184;-94
2022/07/09 02:10:08;;;;;;;;;;;;;;;18.59;64.87;100464.25;6129176;23;1947;-94
2022/07/09 02:12:34;;;;;;;;;;;;;;;18.58;64.83;100470.78;6129221;23;1137;-94
2022/07/09 02:15:00;;;;;;;;;;;;;;;18.56;64.81;100470.25;6129634;23;1166;-94
2022/07/09 02:17:27;;;;;;;;;;;;;;;18.56;64.96;100466.69;6130478;23;961;-94
2022/07/09 02:19:53;;;;;;;;;;;;;;;18.56;65.09;100469.41;6129107;23;1169;-94
2022/07/09 02:22:19;;;;;;;;;;;;;;;18.55;64.84;100468.59;6128933;23;1175;-94
2022/07/09 02:24:46;;;;;;;;;;;;;;;18.53;64.99;100473.53;6129435;23;1287;-94
2022/07/09 02:27:14;;;;;;;;;;;;;;;18.53;64.92;100478.13;6105187;23;1284;-94
2022/07/09 02:29:40;;;;;;;;;;;;;;;18.51;64.85;100472.16;6104388;23;1905;-94
2022/07/09 02:32:06;;;;;;;;;;;;;;;18.51;65.12;100469.44;6129684;23;1229;-94
2022/07/09 02:34:33;;;;;;;;;;;;;;;18.48;64.65;100459.09;6129134;23;1344;-94
2022/07/09 02:36:59;;;;;;;;;;;;;;;18.48;64.98;100457.16;6104751;23;1166;-94
2022/07/09 02:39:26;;;;;;;;;;;;;;;18.47;64.73;100458.28;6129172;23;1179;-94
2022/07/09 02:41:52;;;;;;;;;;;;;;;18.46;64.82;100458.53;6129465;23;1248;-95
2022/07/09 02:44:19;;;;;;;;;;;;;;;18.44;64.81;100461.50;6128798;23;1164;-94
2022/07/09 02:46:45;;;;;;;;;;;;;;;18.43;64.87;100456.34;6128899;23;1191;-94
2022/07/09 02:49:11;;;;;;;;;;;;;;;18.42;64.93;100447.34;6129250;23;1337;-94
2022/07/09 02:51:38;;;;;;;;;;;;;;;18.41;65.00;100434.81;6128786;23;1941;-94
2022/07/09 02:54:04;;;;;;;;;;;;;;;18.40;65.02;100435.91;6128637;23;1173;-94
2022/07/09 02:56:31;;;;;;;;;;;;;;;18.39;64.96;100431.56;6128848;23;1214;-94
2022/07/09 02:58:57;;;;;;;;;;;;;;;18.38;64.88;100435.34;6129294;23;1164;-95
2022/07/09 03:01:23;;;;;;;;;;;;;;;18.38;64.88;100443.53;6104356;23;1260;-94
2022/07/09 03:03:50;;;;;;;;;;;;;;;18.36;64.94;100443.00;6128150;23;1238;-94
2022/07/09 03:06:16;;;;;;;;;;;;;;;18.34;64.64;100442.44;6128992;23;1168;-94
2022/07/09 03:08:43;;;;;;;;;;;;;;;18.33;64.71;100441.66;6128728;23;1257;-94
2022/07/09 03:11:09;;;;;;;;;;;;;;;18.33;64.67;100447.09;6135826;23;1893;-94
2022/07/09 03:13:36;;;;;;;;;;;;;;;18.32;64.72;100437.28;6115674;23;1200;-95
2022/07/09 03:16:02;;;;;;;;;;;;;;;18.30;64.74;100431.28;6130686;23;1194;-94
2022/07/09 03:18:28;;;;;;;;;;;;;;;18.30;64.68;100428.56;6129306;23;1291;-94
2022/07/09 03:20:55;;;;;;;;;;;;;;;18.29;64.84;100423.38;6104416;23;1233;-94
2022/07/09 03:23:21;;;;;;;;;;;;;;;18.27;64.75;100429.09;6103599;23;1270;-94
2022/07/09 03:25:48;;;;;;;;;;;;;;;18.27;64.56;100436.47;6104852;23;1146;-94
2022/07/09 03:28:14;;;;;;;;;;;;;;;18.24;64.73;100426.94;6128645;23;1282;-94
2022/07/09 03:30:40;;;;;;;;;;;;;;;18.23;64.63;100424.47;6104260;23;1940;-94
2022/07/09 03:33:07;;;;;;;;;;;;;;;18.24;64.69;100428.84;6128125;23;1164;-94
2022/07/09 03:35:33;;;;;;;;;;;;;;;18.23;64.47;100427.19;6128721;23;1184;-94
2022/07/09 03:37:59;;;;;;;;;;;;;;;18.24;64.54;100434.28;6129968;23;1024;-94
2022/07/09 03:40:26;;;;;;;;;;;;;;;18.22;64.60;100442.72;6128684;23;1220;-94
2022/07/09 03:42:53;;;;;;;;;;;;;;;18.21;64.80;100451.19;6103658;23;1187;-94
2022/07/09 03:45:19;;;;;;;;;;;;;;;18.19;64.71;100446.00;6127895;23;1322;-94
2022/07/09 03:47:45;;;;;;;;;;;;;;;18.17;64.75;100440.00;6128547;23;1155;-94
2022/07/09 03:50:12;;;;;;;;;;;;;;;18.18;64.63;100444.38;6103733;23;1893;-94
2022/07/09 03:52:38;;;;;;;;;;;;;;;18.17;64.67;100442.72;6104356;23;1276;-93
2022/07/09 03:55:05;;;;;;;;;;;;;;;18.17;64.61;100442.72;6104055;23;1284;-94
2022/07/09 03:57:31;;;;;;;;;;;;;;;18.16;64.31;100441.09;6128324;23;1181;-94
2022/07/09 03:59:57;;;;;;;;;;;;;;;18.14;64.30;100446.00;6123733;23;1264;-94
2022/07/09 04:02:24;;;;;;;;;;;;;;;18.14;64.56;100443.28;6099237;23;1161;-94
2022/07/09 04:04:50;;;;;;;;;;;;;;;18.14;64.55;100443.28;6099023;23;1175;-93
2022/07/09 04:07:17;;;;;;;;;;;;;;;18.12;64.38;100440.84;6100475;23;867;-94
2022/07/09 04:09:43;;;;;;;;;;;;;;;18.12;64.50;100440.84;6123114;23;1298;-94
2022/07/09 04:12:10;;;;;;;;;;;;;;;18.10;64.23;100439.47;6098869;23;1936;-94
2022/07/09 04:14:36;;;;;;;;;;;;;;;18.09;64.26;100449.56;6098487;23;1484;-94
2022/07/09 04:17:02;;;;;;;;;;;;;;;18.08;64.48;100447.91;6099193;23;1178;-94
2022/07/09 04:19:29;;;;;;;;;;;;;;;18.07;64.24;100449.00;6099158;23;1213;-94
2022/07/09 04:21:55;;;;;;;;;;;;;;;18.07;64.37;100443.56;6099081;23;1323;-94
2022/07/09 04:24:21;;;;;;;;;;;;;;;18.07;64.17;100445.47;6099552;23;804;-94
2022/07/09 04:26:48;;;;;;;;;;;;;;;18.06;64.32;100435.63;6098659;23;1200;-93
2022/07/09 04:29:14;;;;;;;;;;;;;;;18.04;64.31;100443.28;6098611;23;1347;-93
2022/07/09 04:31:40;;;;;;;;;;;;;;;18.03;63.98;100453.38;6098981;23;1943;-93
2022/07/09 04:34:07;;;;;;;;;;;;;;;18.02;64.02;100456.34;6098390;23;1258;-94
2022/07/09 04:36:33;;;;;;;;;;;;;;;18.00;64.25;100448.47;6098968;23;1162;-93
2022/07/09 04:39:00;;;;;;;;;;;;;;;17.98;63.76;100441.66;6099902;23;1111;-93
2022/07/09 04:41:28;;;;;;;;;;;;;;;17.99;63.97;100435.09;6099016;23;1256;-93
2022/07/09 04:43:54;;;;;;;;;;;;;;;17.96;63.88;100439.19;6097998;23;1210;-93
2022/07/09 04:46:21;;;;;;;;;;;;;;;17.96;62.85;100452.00;6099169;23;1197;-94
2022/07/09 04:48:47;;;;;;;;;;;;;;;17.95;63.86;100455.81;6099510;23;820;-94
2022/07/09 04:51:14;;;;;;;;;;;;;;;17.93;63.58;100451.44;6098777;23;1929;-93
2022/07/09 04:53:40;;;;;;;;;;;;;;;17.94;63.93;100452.25;6097883;23;1289;-94
2022/07/09 04:56:07;;;;;;;;;;;;;;;17.93;63.62;100439.72;6098678;23;1167;-94
2022/07/09 04:58:33;;;;;;;;;;;;;;;17.91;63.02;100433.72;6098347;23;1286;-94
2022/07/09 05:00:59;;;;;;;;;;;;;;;17.91;62.71;100450.91;6103076;23;1192;-93
2022/07/09 05:03:26;;;;;;;;;;;;;;;17.91;63.43;100450.91;6103024;23;1169;-93
2022/07/09 05:05:52;;;;;;;;;;;;;;;17.93;63.54;100453.34;6103404;23;1154;-93
2022/07/09 05:08:18;;;;;;;;;;;;;;;17.91;63.48;100453.63;6103242;23;1261;-93
2022/07/09 05:10:45;;;;;;;;;;;;;;;17.92;63.55;100451.72;6103742;23;1950;-93
2022/07/09 05:13:11;;;;;;;;;;;;;;;17.92;63.24;100446.28;6102926;23;1197;-94
2022/07/09 05:15:37;;;;;;;;;;;;;;;17.90;63.17;100443.00;6103578;23;1161;-93
2022/07/09 05:18:05;;;;;;;;;;;;;;;17.87;62.29;100438.91;6102830;23;1294;-95
2022/07/09 05:20:32;;;;;;;;;;;;;;;17.87;63.43;100436.19;6102998;23;1307;-93
2022/07/09 05:22:58;;;;;;;;;;;;;;;17.87;62.93;100438.09;6102775;23;1295;-93
2022/07/09 05:25:25;;;;;;;;;;;;;;;17.87;63.44;100432.63;6102973;23;1150;-93
2022/07/09 05:27:51;;;;;;;;;;;;;;;17.86;63.30;100429.09;6102867;23;1365;-93
2022/07/09 05:30:18;;;;;;;;;;;;;;;17.86;63.11;100429.09;6103148;23;1157;-94
2022/07/09 05:32:44;;;;;;;;;;;;;;;17.85;63.09;100429.34;6127302;23;1909;-93
2022/07/09 05:35:12;;;;;;;;;;;;;;;17.84;63.41;100427.72;6102965;23;1250;-93
2022/07/09 05:37:38;;;;;;;;;;;;;;;17.84;63.16;100431.28;6103293;23;1402;-93
2022/07/09 05:40:06;;;;;;;;;;;;;;;17.84;63.41;100431.28;6103410;23;1171;-92
2022/07/09 05:42:32;;;;;;;;;;;;;;;17.84;63.52;100430.47;6102833;23;1167;-93
2022/07/09 05:44:59;;;;;;;;;;;;;;;17.84;63.43;100438.63;6103144;23;1257;-93
2022/07/09 05:47:25;;;;;;;;;;;;;;;17.83;62.67;100439.72;6103329;23;1281;-94
2022/07/09 05:49:51;;;;;;;;;;;;;;;17.82;62.84;100436.16;6103260;23;1175;-93
2022/07/09 05:52:18;;;;;;;;;;;;;;;17.82;63.08;100440.78;6102999;23;1936;-93
2022/07/09 05:54:44;;;;;;;;;;;;;;;17.83;62.88;100445.19;6102765;23;1145;-92
2022/07/09 05:57:10;;;;;;;;;;;;;;;17.81;62.95;100442.72;6103493;23;1161;-92
2022/07/09 05:59:37;;;;;;;;;;;;;;;17.81;62.76;100437.25;6128342;23;1143;-93
2022/07/09 06:02:05;;;;;;;;;;;;;;;17.80;63.11;100437.53;6103233;23;1262;-94
2022/07/09 06:04:31;;;;;;;;;;;;;;;17.80;62.88;100434.81;6102935;23;1259;-93
2022/07/09 06:06:58;;;;;;;;;;;;;;;17.79;62.84;100431.25;6103049;23;1165;-93
2022/07/09 06:09:24;;;;;;;;;;;;;;;17.80;62.73;100443.00;6103204;23;1261;-93
2022/07/09 06:11:50;;;;;;;;;;;;;;;17.79;62.54;100433.16;6103235;23;1897;-93
2022/07/09 06:14:19;;;;;;;;;;;;;;;17.79;62.08;100433.97;6102549;23;1263;-92
2022/07/09 06:16:46;;;;;;;;;;;;;;;17.78;61.91;100426.91;6102817;23;1236;-93
2022/07/09 06:19:13;;;;;;;;;;;;;;;17.78;62.61;100432.34;6102813;23;1287;-93
2022/07/09 06:21:39;;;;;;;;;;;;;;;17.75;60.89;100430.13;6103357;23;1300;-93
2022/07/09 06:24:06;;;;;;;;;;;;;;;17.76;62.10;100434.50;6102558;23;1278;-92
2022/07/09 06:26:33;;;;;;;;;;;;;;;17.77;62.33;100435.34;6102855;23;1494;-92
2022/07/09 06:28:59;;;;;;;;;;;;;;;17.76;62.03;100433.69;6102644;23;1303;-93
2022/07/09 06:31:26;;;;;;;;;;;;;;;17.77;62.61;100438.06;6102755;23;1897;-93
2022/07/09 06:33:52;;;;;;;;;;;;;;;17.75;62.25;100429.34;6102882;23;1197;-93
2022/07/09 06:36:18;;;;;;;;;;;;;;;17.75;62.31;100438.31;6103090;23;1372;-92
2022/07/09 06:41:43;;;;;;;;;;;;;;;17.75;62.35;100432.06;6012977;23;1308;-93
2022/07/09 06:44:10;;;;;;;;;;;;;;;17.74;62.51;100433.97;5989269;23;1320;-93
2022/07/09 06:46:38;;;;;;;;;;;;;;;17.75;61.54;100432.06;6039880;23;1223;-92
2022/07/09 06:49:04;;;;;;;;;;;;;;;17.75;62.17;100434.78;6104540;23;1305;-93
2022/07/09 06:51:30;;;;;;;;;;;;;;;17.75;62.08;100434.78;6105777;23;1905;-92
2022/07/09 06:53:57;;;;;;;;;;;;;;;17.73;61.75;100437.75;6132242;23;893;-92
2022/07/09 06:56:23;;;;;;;;;;;;;;;17.73;62.02;100442.38;6130446;23;874;-93
2022/07/09 06:58:50;;;;;;;;;;;;;;;17.74;62.11;100439.41;6104526;23;1177;-93
2022/07/09 07:01:16;;;;;;;;;;;;;;;17.73;61.99;100448.66;6104196;23;1317;-92
2022/07/09 07:03:42;;;;;;;;;;;;;;;17.74;61.76;100450.31;6104449;23;1278;-92
2022/07/09 07:06:09;;;;;;;;;;;;;;;17.74;61.89;100446.78;6104407;23;1143;-93
2022/07/09 07:08:35;;;;;;;;;;;;;;;17.71;61.39;100445.41;6105563;23;1302;-94
2022/07/09 07:11:02;;;;;;;;;;;;;;;17.69;61.83;100442.94;6104276;23;1940;-94
2022/07/09 07:13:28;;;;;;;;;;;;;;;17.72;61.92;100447.03;6104498;23;1245;-92
2022/07/09 07:15:55;;;;;;;;;;;;;;;17.70;62.33;100441.84;6104634;23;1279;-93
2022/07/09 07:18:21;;;;;;;;;;;;;;;17.70;61.93;100446.47;6104237;23;1260;-92
2022/07/09 07:20:47;;;;;;;;;;;;;;;17.70;62.23;100444.56;6105105;23;1185;-92
2022/07/09 07:23:14;;;;;;;;;;;;;;;17.70;62.30;100430.94;6103751;23;1360;-92
2022/07/09 07:25:40;;;;;;;;;;;;;;;17.72;62.22;100447.03;6104177;23;1208;-92
2022/07/09 07:28:07;;;;;;;;;;;;;;;17.70;61.92;100444.56;6104082;23;1245;-93
2022/07/09 07:30:34;;;;;;;;;;;;;;;17.71;62.23;100434.50;6104283;23;1239;-92
2022/07/09 07:33:01;;;;;;;;;;;;;;;17.70;62.16;100436.38;6104281;23;1947;-92
2022/07/09 07:35:27;;;;;;;;;;;;;;;17.70;62.07;100430.13;6104626;23;1315;-93
2022/07/09 07:37:53;;;;;;;;;;;;;;;17.71;61.95;100437.22;6104434;23;1268;-92
2022/07/09 07:40:20;;;;;;;;;;;;;;;17.70;62.17;100444.56;6103888;23;1137;-92
2022/07/09 07:42:46;;;;;;;;;;;;;;;17.70;61.97;100449.19;6103969;23;1201;-92
2022/07/09 07:45:12;;;;;;;;;;;;;;;17.69;61.33;100445.66;6104247;23;1391;-93
2022/07/09 07:47:39;;;;;;;;;;;;;;;17.69;61.51;100434.75;6104262;23;1167;-92
2022/07/09 07:50:06;;;;;;;;;;;;;;;17.69;61.02;100442.94;6103829;23;1275;-93
2022/07/09 07:52:32;;;;;;;;;;;;;;;17.68;61.12;100446.75;6103630;23;1905;-93
2022/07/09 07:54:58;;;;;;;;;;;;;;;17.70;61.31;100447.28;6103889;23;1176;-92
2022/07/09 07:57:25;;;;;;;;;;;;;;;17.69;61.54;100451.09;6103854;23;1221;-92
2022/07/09 07:59:51;;;;;;;;;;;;;;;17.70;61.89;100446.47;6129635;23;1222;-92
2022/07/09 08:02:17;;;;;;;;;;;;;;;17.70;61.74;100451.91;6103773;23;1334;-92
2022/07/09 08:04:44;;;;;;;;;;;;;;;17.70;61.79;100441.03;6129344;23;981;-93
2022/07/09 08:07:10;;;;;;;;;;;;;;;17.70;61.70;100446.47;6103773;23;1486;-92
2022/07/09 08:09:36;;;;;;;;;;;;;;;17.70;61.70;100447.28;6103797;23;1168;-92
2022/07/09 08:12:03;;;;;;;;;;;;;;;17.70;61.17;100438.28;6103729;23;1948;-91
2022/07/09 08:14:29;;;;;;;;;;;;;;;17.71;61.04;100439.94;6103855;23;1153;-92
2022/07/09 08:16:55;;;;;;;;;;;;;;;17.73;61.32;100437.75;6104062;23;1186;-93
2022/07/09 08:19:22;;;;;;;;;;;;;;;17.72;61.22;100433.41;6128211;23;1271;-93
2022/07/09 08:21:48;;;;;;;;;;;;;;;17.73;61.01;100432.31;6104021;23;1169;-92
2022/07/09 08:24:15;;;;;;;;;;;;;;;17.73;61.02;100435.03;6103634;23;1243;-93
2022/07/09 08:26:41;;;;;;;;;;;;;;;17.74;61.83;100424.97;6103907;23;1281;-93
2022/07/09 08:29:07;;;;;;;;;;;;;;;17.72;61.74;100425.25;6103448;23;1336;-92
2022/07/09 08:31:34;;;;;;;;;;;;;;;17.74;61.80;100425.78;6103409;23;1909;-92
2022/07/09 08:34:00;;;;;;;;;;;;;;;17.74;61.53;100423.06;6103193;23;1264;-92
2022/07/09 08:36:26;;;;;;;;;;;;;;;17.73;61.32;100418.69;6103461;23;1236;-93
2022/07/09 08:38:53;;;;;;;;;;;;;;;17.75;61.54;100423.88;6103913;23;1260;-92
2022/07/09 08:41:19;;;;;;;;;;;;;;;17.73;61.99;100424.13;6103289;23;1218;-92
2022/07/09 08:43:46;;;;;;;;;;;;;;;17.76;62.01;100418.16;6103476;23;1396;-93
2022/07/09 08:46:12;;;;;;;;;;;;;;;17.75;61.68;100421.97;6103777;23;1332;-92
2022/07/09 08:48:39;;;;;;;;;;;;;;;17.75;61.73;100419.25;6103369;23;1113;-93
2022/07/09 08:51:05;;;;;;;;;;;;;;;17.75;60.96;100424.69;6103761;23;1308;-92
2022/07/09 08:53:31;;;;;;;;;;;;;;;17.76;62.12;100420.88;6103236;23;1910;-92
2022/07/09 08:55:58;;;;;;;;;;;;;;;17.76;62.15;100417.34;6103329;23;1254;-92
2022/07/09 08:58:24;;;;;;;;;;;;;;;17.76;62.25;100414.63;6129028;23;870;-92
2022/07/09 09:00:50;;;;;;;;;;;;;;;17.77;62.06;100410.81;6102884;23;1348;-92
2022/07/09 09:03:17;;;;;;;;;;;;;;;17.75;61.28;100411.06;6103268;23;1185;-92
2022/07/09 09:05:43;;;;;;;;;;;;;;;17.76;61.34;100414.63;6103296;23;1187;-92
2022/07/09 09:08:10;;;;;;;;;;;;;;;17.77;61.35;100419.00;6103596;23;1320;-93
2022/07/09 09:10:36;;;;;;;;;;;;;;;17.76;61.22;100412.69;6104048;23;1291;-92
2022/07/09 09:13:02;;;;;;;;;;;;;;;17.77;61.65;100408.91;6102990;23;1905;-93
2022/07/09 09:15:29;;;;;;;;;;;;;;;17.78;61.70;100418.72;6129281;23;1104;-92
2022/07/09 09:17:55;;;;;;;;;;;;;;;17.78;61.28;100409.75;6103386;23;1224;-92
2022/07/09 09:20:21;;;;;;;;;;;;;;;17.78;61.47;100407.03;6103904;23;1273;-93
2022/07/09 09:22:48;;;;;;;;;;;;;;;17.77;61.41;100405.38;6128025;23;1314;-93
2022/07/09 09:25:14;;;;;;;;;;;;;;;17.79;61.87;100400.47;6128753;23;815;-93
2022/07/09 09:27:41;;;;;;;;;;;;;;;17.80;61.88;100397.50;6128671;23;1000;-92
2022/07/09 09:30:07;;;;;;;;;;;;;;;17.80;62.20;100402.94;6103068;23;1405;-93
2022/07/09 09:32:33;;;;;;;;;;;;;;;17.80;62.00;100389.31;6127536;23;1909;-92
2022/07/09 09:35:00;;;;;;;;;;;;;;;17.79;61.71;100390.41;6103037;23;1339;-93
2022/07/09 09:37:26;;;;;;;;;;;;;;;17.80;61.37;100388.53;6128835;23;1120;-95
2022/07/09 09:39:52;;;;;;;;;;;;;;;17.81;61.13;100387.41;6127923;23;1285;-92
2022/07/09 09:42:19;;;;;;;;;;;;;;;17.81;60.91;100399.13;6103114;23;1462;-92
2022/07/09 09:44:46;;;;;;;;;;;;;;;17.82;61.56;100386.31;6103112;23;1252;-92
2022/07/09 09:47:12;;;;;;;;;;;;;;;17.81;61.93;100382.78;6103260;23;1260;-93
2022/07/09 09:49:39;;;;;;;;;;;;;;;17.81;61.79;100377.34;6102919;23;1181;-92
2022/07/09 09:52:05;;;;;;;;;;;;;;;17.82;61.96;100381.69;6102771;23;1938;-92
2022/07/09 09:54:31;;;;;;;;;;;;;;;17.82;61.54;100383.59;6128508;23;1140;-92
2022/07/09 09:56:58;;;;;;;;;;;;;;;17.83;61.83;100380.63;6102875;23;1200;-93
2022/07/09 09:59:24;;;;;;;;;;;;;;;17.82;61.78;100384.41;6103064;23;1402;-93
2022/07/09 10:01:50;;;;;;;;;;;;;;;17.84;62.16;100384.16;6102888;23;1446;-92
2022/07/09 10:04:18;;;;;;;;;;;;;;;17.82;62.00;100386.31;6102922;23;1138;-92
2022/07/09 10:06:44;;;;;;;;;;;;;;;17.83;61.61;100382.53;6103102;23;1253;-93
2022/07/09 10:09:11;;;;;;;;;;;;;;;17.83;61.34;100379.81;6102868;23;1272;-93
2022/07/09 10:11:37;;;;;;;;;;;;;;;17.84;61.89;100386.88;6103151;23;1319;-92
2022/07/09 10:14:03;;;;;;;;;;;;;;;17.85;62.08;100374.88;6104273;23;1881;-92
2022/07/09 10:16:30;;;;;;;;;;;;;;;17.85;61.90;100372.16;6104811;23;1263;-93
2022/07/09 10:18:56;;;;;;;;;;;;;;;17.85;62.11;100372.16;6105165;23;1369;-92
2022/07/09 10:21:22;;;;;;;;;;;;;;;17.85;62.20;100375.72;6104988;23;1143;-93
2022/07/09 10:23:49;;;;;;;;;;;;;;;17.87;62.11;100369.97;6104676;23;1272;-93
2022/07/09 10:26:15;;;;;;;;;;;;;;;17.87;62.44;100376.25;6105311;23;1383;-93
2022/07/09 10:28:42;;;;;;;;;;;;;;;17.88;62.29;100368.88;6107399;23;1373;-93
2022/07/09 10:31:08;;;;;;;;;;;;;;;17.87;62.32;100359.09;6108946;23;1321;-93
2022/07/09 10:33:35;;;;;;;;;;;;;;;17.86;62.41;100355.56;6105108;23;1931;-93
2022/07/09 10:36:01;;;;;;;;;;;;;;;17.88;62.45;100358.81;6104821;23;1168;-93
2022/07/09 10:38:29;;;;;;;;;;;;;;;17.89;62.51;100356.91;6105123;23;1193;-93
2022/07/09 10:40:55;;;;;;;;;;;;;;;17.89;62.30;100352.28;6105020;23;1147;-92
2022/07/09 10:43:22;;;;;;;;;;;;;;;17.89;62.53;100357.72;6104872;23;1161;-93
2022/07/09 10:45:48;;;;;;;;;;;;;;;17.89;62.20;100352.28;6104519;23;1241;-93
2022/07/09 10:48:15;;;;;;;;;;;;;;;17.90;62.35;100348.44;6104335;23;1300;-93
2022/07/09 10:50:42;;;;;;;;;;;;;;;17.91;62.39;100349.25;6130341;23;863;-93
2022/07/09 10:53:08;;;;;;;;;;;;;;;17.91;62.27;100343.81;6104538;23;1901;-94
2022/07/09 10:55:34;;;;;;;;;;;;;;;17.91;62.57;100341.94;6104405;23;1169;-93
2022/07/09 10:58:02;;;;;;;;;;;;;;;17.92;62.35;100345.47;6105315;23;1300;-93
2022/07/09 11:00:28;;;;;;;;;;;;;;;17.91;62.59;100341.94;6104497;23;1187;-93
2022/07/09 11:02:54;;;;;;;;;;;;;;;17.91;62.29;100341.94;6128985;23;1302;-93
2022/07/09 11:05:21;;;;;;;;;;;;;;;17.94;61.05;100348.72;6104830;23;1194;-93
2022/07/09 11:07:47;;;;;;;;;;;;;;;17.96;61.56;100348.47;6104629;23;1321;-94
2022/07/09 11:10:14;;;;;;;;;;;;;;;17.95;62.23;100346.84;6104478;23;1176;-93
2022/07/09 11:12:45;;;;;;;;;;;;;;;17.95;62.25;100333.22;6104874;23;1897;-95
2022/07/09 11:15:11;;;;;;;;;;;;;;;17.95;62.44;100328.56;6128798;23;1236;-93
2022/07/09 11:17:38;;;;;;;;;;;;;;;17.95;62.44;100327.75;6104808;23;1172;-93
2022/07/09 11:20:04;;;;;;;;;;;;;;;17.96;62.38;100330.19;6104560;23;1214;-93
2022/07/09 11:22:32;;;;;;;;;;;;;;;17.97;62.33;100320.97;6128676;23;1366;-93
2022/07/09 11:24:58;;;;;;;;;;;;;;;17.97;62.45;100325.56;6104133;23;1161;-93
2022/07/09 11:27:25;;;;;;;;;;;;;;;17.97;62.72;100322.84;6104125;23;1263;-93
2022/07/09 11:29:51;;;;;;;;;;;;;;;17.98;62.77;100332.66;6104495;23;1334;-93
2022/07/09 11:32:18;;;;;;;;;;;;;;;17.97;62.22;100326.41;6104109;23;1901;-93
2022/07/09 11:34:44;;;;;;;;;;;;;;;17.97;61.94;100328.28;6104156;23;1225;-93
2022/07/09 11:37:10;;;;;;;;;;;;;;;17.97;62.10;100320.97;6103733;23;1275;-93
2022/07/09 11:39:37;;;;;;;;;;;;;;;17.98;61.91;100330.75;6104332;23;1142;-92
2022/07/09 11:42:03;;;;;;;;;;;;;;;17.99;61.74;100329.66;6104812;23;1244;-93
2022/07/09 11:44:30;;;;;;;;;;;;;;;18.01;60.82;100326.66;6103778;23;1308;-93
2022/07/09 11:46:56;;;;;;;;;;;;;;;18.03;60.33;100327.19;6104323;23;1271;-93
2022/07/09 11:49:23;;;;;;;;;;;;;;;18.03;61.19;100319.84;6103966;23;1151;-92
2022/07/09 11:51:49;;;;;;;;;;;;;;;18.04;61.51;100324.19;6103869;23;1252;-94
2022/07/09 11:54:16;;;;;;;;;;;;;;;18.04;61.37;100321.47;6103635;23;1948;-93
2022/07/09 11:56:44;;;;;;;;;;;;;;;18.03;61.57;100319.84;6103823;23;1259;-93
2022/07/09 11:59:10;;;;;;;;;;;;;;;18.04;61.72;100320.66;6103708;23;1124;-93
2022/07/09 12:01:37;;;;;;;;;;;;;;;18.05;61.79;100333.19;6103962;23;1260;-93
2022/07/09 12:04:03;;;;;;;;;;;;;;;18.05;61.79;100334.00;6104285;23;1204;-94
2022/07/09 12:06:29;;;;;;;;;;;;;;;18.06;61.35;100327.47;6104284;23;1146;-93
2022/07/09 12:08:56;;;;;;;;;;;;;;;18.07;61.83;100326.38;6103716;23;1157;-92
2022/07/09 12:11:22;;;;;;;;;;;;;;;18.06;61.89;100313.84;6104095;23;1137;-93
2022/07/09 12:13:49;;;;;;;;;;;;;;;18.06;62.18;100319.31;6129153;23;1905;-93
2022/07/09 12:16:15;;;;;;;;;;;;;;;18.07;61.75;100317.38;6103750;23;1178;-93
2022/07/09 12:18:41;;;;;;;;;;;;;;;18.10;61.51;100322.28;6103671;23;1278;-94
2022/07/09 12:21:08;;;;;;;;;;;;;;;18.11;60.89;100321.19;6103984;23;1177;-93
2022/07/09 12:23:34;;;;;;;;;;;;;;;18.11;61.67;100319.28;6103234;23;1110;-93
2022/07/09 12:26:00;;;;;;;;;;;;;;;18.11;61.74;100321.19;6104046;23;1309;-93
2022/07/09 12:28:27;;;;;;;;;;;;;;;18.11;62.11;100318.47;6128353;23;1265;-92
2022/07/09 12:30:53;;;;;;;;;;;;;;;18.12;60.83;100318.19;6103721;23;1268;-93
2022/07/09 12:33:20;;;;;;;;;;;;;;;18.14;61.58;100307.81;6103444;23;1952;-93
2022/07/09 12:35:46;;;;;;;;;;;;;;;18.15;61.43;100323.09;6103553;23;1130;-94
2022/07/09 12:38:12;;;;;;;;;;;;;;;18.14;61.66;100316.00;6103310;23;1205;-93
2022/07/09 12:40:39;;;;;;;;;;;;;;;18.15;61.47;100306.75;6103892;23;1318;-93
2022/07/09 12:43:06;;;;;;;;;;;;;;;18.17;61.60;100312.72;6102892;23;1266;-92
2022/07/09 12:45:32;;;;;;;;;;;;;;;18.18;61.86;100310.84;6103397;23;1335;-93